createdAt,value
2019-02-04T00:04:40.855Z,-0.10
2019-02-04T00:09:46.667Z,-0.10
2019-02-04T00:14:52.574Z,-0.20
2019-02-04T00:19:58.413Z,-0.20
2019-02-04T00:25:03.931Z,-0.20
2019-02-04T00:30:09.823Z,-0.40
2019-02-04T00:35:15.598Z,-0.40
2019-02-04T00:40:21.111Z,-0.40
2019-02-04T00:45:26.607Z,-0.50
2019-02-04T00:50:32.379Z,-0.40
2019-02-04T00:55:37.874Z,-0.50
2019-02-04T01:00:47.447Z,-0.50
2019-02-04T01:05:53.228Z,-0.60
2019-02-04T01:10:59.406Z,-0.60
2019-02-04T01:16:04.862Z,-0.70
2019-02-04T01:21:10.316Z,-0.70
2019-02-04T01:26:16.103Z,-0.80
2019-02-04T01:31:21.583Z,-0.70
2019-02-04T01:36:27.367Z,-0.70
2019-02-04T01:41:33.246Z,-0.80
2019-02-04T01:46:38.751Z,-0.80
2019-02-04T01:51:44.238Z,-0.80
2019-02-04T01:56:49.814Z,-0.80
2019-02-04T02:01:55.283Z,-0.80
2019-02-04T02:07:01.462Z,-0.80
2019-02-04T02:12:06.938Z,-0.90
2019-02-04T02:17:13.443Z,-0.80
2019-02-04T02:22:19.255Z,-0.90
2019-02-04T02:27:26.305Z,-1.00
2019-02-04T02:32:31.748Z,-1.00
2019-02-04T02:37:37.599Z,-1.10
2019-02-04T02:42:43.034Z,-1.20
2019-02-04T02:47:48.884Z,-1.30
2019-02-04T02:52:54.707Z,-1.40
2019-02-04T02:58:00.934Z,-1.50
2019-02-04T03:03:06.418Z,-1.70
2019-02-04T03:08:11.907Z,-1.70
2019-02-04T03:13:17.678Z,-1.80
2019-02-04T03:18:23.550Z,-1.70
2019-02-04T03:23:29.071Z,-1.60
2019-02-04T03:28:34.519Z,-1.50
2019-02-04T03:33:40.037Z,-1.30
2019-02-04T03:38:45.511Z,-1.30
2019-02-04T03:43:51.517Z,-1.20
2019-02-04T03:48:56.995Z,-1.00
2019-02-04T03:54:02.773Z,-0.80
2019-02-04T03:59:08.247Z,-0.70
2019-02-04T04:04:14.165Z,-0.50
2019-02-04T04:09:19.655Z,-0.50
2019-02-04T04:14:25.102Z,-0.40
2019-02-04T04:19:30.919Z,-0.20
2019-02-04T04:24:36.730Z,-0.10
2019-02-04T04:29:42.494Z,-0.10
2019-02-04T04:34:48.307Z,-0.10
2019-02-04T04:39:54.149Z,0.00
2019-02-04T04:44:59.990Z,0.10
2019-02-04T04:50:06.226Z,0.10
2019-02-04T04:55:14.136Z,0.00
2019-02-04T05:00:22.716Z,0.10
2019-02-04T05:05:28.248Z,0.20
2019-02-04T05:10:33.729Z,0.10
2019-02-04T05:15:39.534Z,0.10
2019-02-04T05:20:45.303Z,0.10
2019-02-04T05:25:51.134Z,0.20
2019-02-04T05:30:57.234Z,0.20
2019-02-04T05:36:03.042Z,0.20
2019-02-04T05:41:08.528Z,0.10
2019-02-04T05:46:13.978Z,0.10
2019-02-04T05:51:19.427Z,0.20
2019-02-04T05:56:25.538Z,0.10
2019-02-04T06:01:31.328Z,0.10
2019-02-04T06:06:36.780Z,0.20
2019-02-04T06:11:42.675Z,0.10
2019-02-04T06:16:48.181Z,0.10
2019-02-04T06:21:53.995Z,0.20
2019-02-04T06:26:59.439Z,0.10
2019-02-04T06:32:04.880Z,0.00
2019-02-04T06:37:10.694Z,0.10
2019-02-04T06:42:16.483Z,0.10
2019-02-04T06:47:21.986Z,0.20
2019-02-04T06:52:27.493Z,0.00
2019-02-04T06:57:33.353Z,0.10
2019-02-04T07:02:39.163Z,0.00
2019-02-04T07:07:44.648Z,0.10
2019-02-04T07:12:50.510Z,0.10
2019-02-04T07:18:01.559Z,0.00
2019-02-04T07:23:01.786Z,0.20
2019-02-04T07:28:07.225Z,0.30
2019-02-04T07:33:13.031Z,0.40
2019-02-04T07:38:18.491Z,0.30
2019-02-04T07:43:23.925Z,0.30
2019-02-04T07:48:29.726Z,0.40
2019-02-04T07:53:35.874Z,0.60
2019-02-04T07:58:41.341Z,0.60
2019-02-04T08:03:47.280Z,0.80
2019-02-04T08:08:53.574Z,0.80
2019-02-04T08:13:59.402Z,0.70
2019-02-04T08:19:04.893Z,0.50
2019-02-04T08:24:10.354Z,0.60
2019-02-04T08:29:16.529Z,0.80
2019-02-04T08:34:22.336Z,0.60
2019-02-04T08:39:28.192Z,0.60
2019-02-04T08:44:33.719Z,0.60
2019-02-04T08:49:39.162Z,0.60
2019-02-04T08:54:44.709Z,0.60
2019-02-04T08:59:50.286Z,0.60
2019-02-04T09:04:56.115Z,0.90
2019-02-04T09:10:02.019Z,1.00
2019-02-04T09:15:10.394Z,1.00
2019-02-04T09:20:17.585Z,0.90
2019-02-04T09:25:23.652Z,1.00
2019-02-04T09:30:30.091Z,1.00
2019-02-04T09:35:36.267Z,1.30
2019-02-04T09:40:44.280Z,1.30
2019-02-04T09:45:49.761Z,1.30
2019-02-04T09:50:59.927Z,1.40
2019-02-04T09:56:05.867Z,1.60
2019-02-04T10:01:11.711Z,1.70
2019-02-04T10:06:17.568Z,1.80
2019-02-04T10:11:23.098Z,1.80
2019-02-04T10:16:29.202Z,1.80
2019-02-04T10:21:35.138Z,2.10
2019-02-04T10:26:40.801Z,2.20
2019-02-04T10:31:46.699Z,2.30
2019-02-04T10:36:52.191Z,2.80
2019-02-04T10:41:58.028Z,2.90
2019-02-04T10:47:04.210Z,3.40
2019-02-04T10:52:10.372Z,3.70
2019-02-04T10:57:16.206Z,3.80
2019-02-04T11:02:22.082Z,4.10
2019-02-04T11:07:27.610Z,4.40
2019-02-04T11:12:33.449Z,4.50
2019-02-04T11:17:39.314Z,4.70
2019-02-04T11:22:45.492Z,4.90
2019-02-04T11:27:51.359Z,5.20
2019-02-04T11:32:57.064Z,5.00
2019-02-04T11:38:03.467Z,5.40
2019-02-04T11:43:09.093Z,5.40
2019-02-04T11:48:14.737Z,5.40
2019-02-04T11:53:32.007Z,5.50
2019-02-04T11:58:26.083Z,5.60
2019-02-04T12:03:31.705Z,6.00
2019-02-04T12:08:37.623Z,5.90
2019-02-04T12:13:43.244Z,6.20
2019-02-04T12:18:49.167Z,6.40
2019-02-04T12:23:54.767Z,6.60
2019-02-04T12:29:00.236Z,6.40
2019-02-04T12:34:05.771Z,6.40
2019-02-04T12:39:20.151Z,6.70
2019-02-04T12:44:26.440Z,6.50
2019-02-04T12:49:31.894Z,6.80
2019-02-04T12:54:37.600Z,7.10
2019-02-04T12:59:45.272Z,7.10
2019-02-04T13:04:50.370Z,7.00
2019-02-04T13:09:56.247Z,6.90
2019-02-04T13:15:01.721Z,6.70
2019-02-04T13:20:10.029Z,6.60
2019-02-04T13:25:19.756Z,6.50
2019-02-04T13:30:26.063Z,6.00
2019-02-04T13:35:38.627Z,6.40
2019-02-04T13:40:45.197Z,6.20
2019-02-04T13:45:51.048Z,6.10
2019-02-04T13:50:57.203Z,6.30
2019-02-04T13:56:03.776Z,6.20
2019-02-04T14:01:09.652Z,6.10
2019-02-04T14:06:15.111Z,6.10
2019-02-04T14:11:21.643Z,6.00
2019-02-04T14:16:27.130Z,5.90
2019-02-04T14:21:32.981Z,5.50
2019-02-04T14:26:39.130Z,5.30
2019-02-04T14:31:44.612Z,5.10
2019-02-04T14:36:50.712Z,5.00
2019-02-04T14:41:56.440Z,5.00
2019-02-04T14:47:16.675Z,4.80
2019-02-04T14:54:12.864Z,4.90
2019-02-04T14:59:30.513Z,4.70
2019-02-04T15:04:58.050Z,4.70
2019-02-04T15:10:19.745Z,4.60
2019-02-04T15:15:59.442Z,4.40
2019-02-04T15:21:37.396Z,4.30
2019-02-04T15:26:59.861Z,4.10
2019-02-04T15:32:44.989Z,3.90
2019-02-04T15:38:21.215Z,3.70
2019-02-04T15:44:02.895Z,3.50
2019-02-04T15:51:06.435Z,3.20
2019-02-04T15:56:12.647Z,2.90
2019-02-04T16:01:18.147Z,2.70
2019-02-04T16:06:23.597Z,2.70
2019-02-04T16:11:29.866Z,2.70
2019-02-04T16:16:35.330Z,2.40
2019-02-04T16:21:41.490Z,2.30
2019-02-04T16:26:47.393Z,2.00
2019-02-04T16:31:53.258Z,2.00
2019-02-04T16:36:59.107Z,2.00
2019-02-04T16:42:04.586Z,1.80
2019-02-04T16:47:10.047Z,1.70
2019-02-04T16:52:15.862Z,1.50
2019-02-04T16:57:21.371Z,1.50
2019-02-04T17:02:27.863Z,1.40
2019-02-04T17:07:33.462Z,1.30
2019-02-04T17:12:38.975Z,1.20
2019-02-04T17:17:44.796Z,1.20
2019-02-04T17:22:50.518Z,1.20
2019-02-04T17:27:56.066Z,1.20
2019-02-04T17:33:01.855Z,1.10
2019-02-04T17:38:07.419Z,1.00
2019-02-04T17:43:13.207Z,0.80
2019-02-04T17:48:19.109Z,0.90
2019-02-04T17:53:33.939Z,0.80
2019-02-04T17:58:31.454Z,0.50
2019-02-04T18:03:36.872Z,0.50
2019-02-04T18:08:42.555Z,0.30
2019-02-04T18:13:48.460Z,0.20
2019-02-04T18:18:54.031Z,0.30
2019-02-04T18:23:59.486Z,0.30
2019-02-04T18:29:05.058Z,0.10
2019-02-04T18:34:10.846Z,0.20
2019-02-04T18:39:16.319Z,0.40
2019-02-04T18:44:21.819Z,0.40
2019-02-04T18:49:27.478Z,0.40
2019-02-04T18:54:33.019Z,0.40
2019-02-04T18:59:38.852Z,0.20
2019-02-04T19:04:44.788Z,0.30
2019-02-04T19:09:50.373Z,0.40
2019-02-04T19:14:56.028Z,0.40
2019-02-04T19:20:01.599Z,0.40
2019-02-04T19:25:09.311Z,0.40
2019-02-04T19:30:24.310Z,0.50
2019-02-04T19:35:30.171Z,0.50
2019-02-04T19:40:35.687Z,0.50
2019-02-04T19:45:41.620Z,0.50
2019-02-04T19:50:47.795Z,0.50
2019-02-04T19:55:53.684Z,0.40
2019-02-04T20:00:59.513Z,0.40
2019-02-04T20:06:05.680Z,0.50
2019-02-04T20:11:11.518Z,0.50
2019-02-04T20:16:17.418Z,0.60
2019-02-04T20:21:23.286Z,0.60
2019-02-04T20:26:28.804Z,0.50
2019-02-04T20:31:34.280Z,0.40
2019-02-04T20:36:40.082Z,0.30
2019-02-04T20:41:45.875Z,0.30
2019-02-04T20:46:52.103Z,0.20
2019-02-04T20:51:57.582Z,0.10
2019-02-04T20:57:03.098Z,0.00
2019-02-04T21:02:08.982Z,0.10
2019-02-04T21:07:14.844Z,0.10
2019-02-04T21:12:21.111Z,0.00
2019-02-04T21:17:26.558Z,-0.10
2019-02-04T21:22:32.395Z,-0.10
2019-02-04T21:27:38.375Z,0.10
2019-02-04T21:32:44.551Z,0.10
2019-02-04T21:37:50.415Z,0.10
2019-02-04T21:42:55.938Z,0.10
2019-02-04T21:48:01.864Z,0.20
2019-02-04T21:53:07.846Z,0.20
2019-02-04T21:58:13.715Z,0.30
2019-02-04T22:03:19.550Z,0.30
2019-02-04T22:08:25.747Z,0.30
2019-02-04T22:13:31.323Z,0.30
2019-02-04T22:18:36.831Z,0.30
2019-02-04T22:23:42.681Z,0.30
2019-02-04T22:28:48.155Z,0.20
2019-02-04T22:33:53.990Z,0.30
2019-02-04T22:38:59.818Z,0.30
2019-02-04T22:44:05.443Z,0.30
2019-02-04T22:49:11.339Z,0.40
2019-02-04T22:54:16.970Z,0.30
2019-02-04T22:59:22.830Z,0.40
2019-02-04T23:04:28.306Z,0.40
2019-02-04T23:09:34.214Z,0.40
2019-02-04T23:14:39.751Z,0.50
2019-02-04T23:19:45.211Z,0.50
2019-02-04T23:24:50.715Z,0.50
2019-02-04T23:29:56.795Z,0.50
2019-02-04T23:35:02.255Z,0.50
2019-02-04T23:40:07.932Z,0.40
2019-02-04T23:45:13.412Z,0.40
2019-02-04T23:50:19.043Z,0.30
2019-02-04T23:55:24.851Z,0.20
